Terminal Aerodrome Forecast
Issued by NWS Caribou, ME

Home | Current Version | Previous Version | Text Only | Print | Product List | Glossary On
Versions: 1 2 3 4 5 6 7 8 9 10 11 12 13 14 15 16 17
000
FTUS41 KCAR 251730
TAFBGR
TAF
KBGR 251730Z 2518/2618 12012KT P6SM SCT100 OVC180
     FM252200 11012KT P6SM VCSH BKN080
     FM260300 08014G22KT 6SM -SHRA OVC015
     FM260900 05016G26KT 4SM -RA BR OVC007
     FM261400 05012KT 2SM RA BR OVC004=

USA.gov is the U.S. government's official web portal to all federal, state and local government web resources and services.